createdAt,value
2018-05-15T00:00:23.831Z,0.00
2018-05-15T00:01:23.834Z,0.00
2018-05-15T00:02:23.850Z,0.00
2018-05-15T00:03:23.988Z,0.00
2018-05-15T00:04:24.011Z,0.00
2018-05-15T00:05:23.913Z,0.00
2018-05-15T00:06:23.943Z,0.00
2018-05-15T00:07:23.959Z,0.00
2018-05-15T00:08:24.090Z,0.00
2018-05-15T00:09:24.005Z,0.00
2018-05-15T00:10:24.012Z,0.00
2018-05-15T00:11:24.039Z,0.00
2018-05-15T00:12:24.055Z,0.00
2018-05-15T00:13:24.075Z,0.00
2018-05-15T00:14:24.106Z,0.00
2018-05-15T00:15:24.118Z,0.00
2018-05-15T00:16:24.256Z,0.00
2018-05-15T00:17:24.157Z,0.00
2018-05-15T00:18:24.222Z,0.00
2018-05-15T00:19:24.267Z,0.00
2018-05-15T00:20:24.208Z,0.00
2018-05-15T00:21:24.226Z,0.00
2018-05-15T00:22:24.302Z,0.00
2018-05-15T00:23:24.281Z,0.00
2018-05-15T00:24:24.291Z,0.00
2018-05-15T00:25:24.314Z,0.00
2018-05-15T00:26:24.333Z,0.00
2018-05-15T00:27:24.395Z,0.00
2018-05-15T00:28:24.386Z,0.00
2018-05-15T00:29:24.449Z,0.00
2018-05-15T00:30:24.409Z,0.00
2018-05-15T00:31:24.435Z,0.00
2018-05-15T00:32:24.453Z,0.00
2018-05-15T00:33:24.461Z,0.00
2018-05-15T00:34:24.489Z,0.00
2018-05-15T00:35:24.615Z,0.00
2018-05-15T00:36:24.530Z,0.00
2018-05-15T00:37:24.541Z,0.00
2018-05-15T00:38:24.612Z,0.00
2018-05-15T00:39:24.579Z,0.00
2018-05-15T00:40:24.600Z,0.00
2018-05-15T00:41:24.619Z,0.00
2018-05-15T00:42:24.638Z,0.00
2018-05-15T00:43:24.656Z,0.00
2018-05-15T00:44:24.740Z,0.00
2018-05-15T00:45:24.704Z,0.00
2018-05-15T00:46:24.715Z,0.00
2018-05-15T00:47:24.836Z,0.00
2018-05-15T00:48:24.856Z,0.00
2018-05-15T00:49:24.795Z,0.00
2018-05-15T00:50:24.791Z,0.00
2018-05-15T00:51:24.820Z,0.00
2018-05-15T00:52:24.832Z,0.00
2018-05-15T00:53:24.960Z,0.00
2018-05-15T00:54:24.892Z,0.00
2018-05-15T00:55:24.916Z,0.00
2018-05-15T00:56:24.910Z,0.00
2018-05-15T00:57:24.927Z,0.00
2018-05-15T00:58:24.946Z,0.00
2018-05-15T00:59:24.969Z,0.00
2018-05-15T01:00:24.984Z,0.00
2018-05-15T02:40:40.780Z,4.00
2018-05-15T02:41:40.793Z,4.00
2018-05-15T02:42:40.782Z,0.00
2018-05-15T02:43:40.798Z,0.00
2018-05-15T02:44:40.842Z,4.00
2018-05-15T02:45:40.851Z,4.00
2018-05-15T02:46:40.993Z,4.00
2018-05-15T02:47:40.874Z,4.00
2018-05-15T02:48:40.891Z,4.00
2018-05-15T02:49:40.922Z,4.00
2018-05-15T02:50:40.936Z,4.00
2018-05-15T02:51:40.950Z,8.00
2018-05-15T02:52:40.977Z,4.00
2018-05-15T02:53:40.997Z,8.00
2018-05-15T02:54:41.009Z,8.00
2018-05-15T02:55:41.036Z,12.00
2018-05-15T02:56:41.060Z,12.00
2018-05-15T02:57:41.084Z,12.00
2018-05-15T02:58:41.092Z,12.00
2018-05-15T02:59:41.106Z,16.00
2018-05-15T03:00:41.123Z,20.00
2018-05-15T03:01:41.167Z,20.00
2018-05-15T03:02:41.171Z,24.00
2018-05-15T03:03:41.187Z,24.00
2018-05-15T03:04:41.202Z,28.00
2018-05-15T03:05:41.214Z,36.00
2018-05-15T03:06:41.232Z,40.00
2018-05-15T03:07:41.270Z,44.00
2018-05-15T03:08:41.268Z,48.00
2018-05-15T03:09:41.299Z,56.00
2018-05-15T03:10:41.343Z,64.00
2018-05-15T03:11:41.350Z,68.00
2018-05-15T03:12:41.375Z,80.00
2018-05-15T03:13:41.375Z,92.00
2018-05-15T03:14:41.405Z,104.00
2018-05-15T03:15:41.406Z,112.00
2018-05-15T03:16:41.421Z,128.00
2018-05-15T03:17:41.449Z,140.00
2018-05-15T03:18:41.479Z,156.00
2018-05-15T03:19:41.476Z,168.00
2018-05-15T03:20:41.495Z,188.00
2018-05-15T03:21:41.525Z,208.00
2018-05-15T03:22:41.548Z,228.00
2018-05-15T03:23:41.556Z,248.00
2018-05-15T03:24:41.593Z,268.00
2018-05-15T03:25:41.591Z,296.00
2018-05-15T03:26:41.608Z,320.00
2018-05-15T03:27:41.645Z,348.00
2018-05-15T03:28:41.652Z,372.00
2018-05-15T03:29:41.667Z,404.00
2018-05-15T03:30:41.700Z,436.00
2018-05-15T03:31:41.720Z,472.00
2018-05-15T03:32:41.722Z,504.00
2018-05-15T03:33:41.762Z,544.00
2018-05-15T03:34:41.759Z,576.00
2018-05-15T03:35:41.777Z,616.00
2018-05-15T03:36:41.803Z,656.00
2018-05-15T03:37:41.811Z,696.00
2018-05-15T03:38:41.826Z,736.00
2018-05-15T03:39:41.868Z,776.00
2018-05-15T03:40:41.870Z,816.00
2018-05-15T03:41:41.890Z,856.00
2018-05-15T03:42:41.905Z,900.00
2018-05-15T03:43:41.931Z,948.00
2018-05-15T03:44:41.944Z,1004.00
2018-05-15T03:45:41.959Z,1068.00
2018-05-15T03:46:42.008Z,1128.00
2018-05-15T03:47:42.008Z,1188.00
2018-05-15T03:48:42.027Z,1248.00
2018-05-15T03:49:42.053Z,1292.00
2018-05-15T03:50:42.084Z,1332.00
2018-05-15T03:51:42.080Z,1372.00
2018-05-15T03:52:42.094Z,1408.00
2018-05-15T03:53:42.111Z,1440.00
2018-05-15T03:54:42.135Z,1468.00
2018-05-15T03:55:42.165Z,1480.00
2018-05-15T03:56:42.170Z,1496.00
2018-05-15T03:57:42.191Z,1504.00
2018-05-15T03:58:42.299Z,1524.00
2018-05-15T03:59:42.223Z,1556.00
2018-05-15T04:00:42.312Z,1588.00
2018-05-15T04:01:42.262Z,1624.00
2018-05-15T04:02:42.313Z,1660.00
2018-05-15T04:03:42.309Z,1708.00
2018-05-15T04:04:42.317Z,1752.00
2018-05-15T04:05:42.335Z,1796.00
2018-05-15T04:06:42.352Z,1844.00
2018-05-15T04:07:42.374Z,1892.00
2018-05-15T04:08:42.457Z,1948.00
2018-05-15T04:09:42.408Z,2004.00
2018-05-15T04:10:42.484Z,2064.00
2018-05-15T04:11:42.450Z,2128.00
2018-05-15T04:12:42.463Z,2188.00
2018-05-15T04:13:42.491Z,2256.00
2018-05-15T04:14:42.517Z,2324.00
2018-05-15T04:15:42.525Z,2396.00
2018-05-15T04:16:42.557Z,2472.00
2018-05-15T04:17:42.572Z,2560.00
2018-05-15T04:18:42.592Z,2664.00
2018-05-15T04:19:42.596Z,2768.00
2018-05-15T04:20:42.614Z,2876.00
2018-05-15T04:21:42.637Z,3020.00
2018-05-15T04:22:42.648Z,3192.00
2018-05-15T04:23:42.679Z,3384.00
2018-05-15T04:24:42.696Z,3620.00
2018-05-15T04:25:42.710Z,3872.00
2018-05-15T04:26:42.750Z,4156.00
2018-05-15T04:27:42.748Z,4464.00
2018-05-15T04:28:42.775Z,4768.00
2018-05-15T04:29:42.790Z,5072.00
2018-05-15T04:30:42.830Z,5372.00
2018-05-15T04:31:42.837Z,5660.00
2018-05-15T04:32:42.877Z,5992.00
2018-05-15T04:33:42.861Z,6316.00
2018-05-15T04:34:42.884Z,6572.00
2018-05-15T04:35:42.905Z,6828.00
2018-05-15T04:36:42.919Z,7048.00
2018-05-15T04:37:42.957Z,7256.00
2018-05-15T04:38:42.957Z,7472.00
2018-05-15T04:39:43.006Z,7648.00
2018-05-15T04:40:42.995Z,7936.00
2018-05-15T04:41:43.014Z,8324.00
2018-05-15T04:42:43.033Z,8744.00
2018-05-15T04:43:43.146Z,9156.00
2018-05-15T04:44:43.074Z,9584.00
2018-05-15T04:45:43.088Z,10100.00
2018-05-15T04:46:43.134Z,10584.00
2018-05-15T04:47:43.145Z,11080.00
2018-05-15T04:48:43.150Z,11560.00
2018-05-15T04:49:43.172Z,18752.00
2018-05-15T04:50:43.188Z,34752.00
2018-05-15T04:51:43.215Z,39520.00
2018-05-15T04:52:43.222Z,38624.00
2018-05-15T04:53:43.254Z,37408.00
2018-05-15T04:54:43.270Z,36928.00
2018-05-15T04:55:43.316Z,34912.00
2018-05-15T04:56:43.310Z,32352.00
2018-05-15T04:57:43.343Z,29856.00
2018-05-15T04:58:43.386Z,27904.00
2018-05-15T04:59:43.374Z,25120.00
2018-05-15T05:00:43.424Z,24928.00
2018-05-15T05:01:43.419Z,25824.00
2018-05-15T05:02:43.458Z,26368.00
2018-05-15T05:03:43.481Z,26240.00
2018-05-15T05:04:43.491Z,26688.00
2018-05-15T05:05:43.519Z,27008.00
2018-05-15T05:06:43.540Z,28800.00
2018-05-15T05:07:43.570Z,32672.00
2018-05-15T05:08:43.590Z,36608.00
2018-05-15T05:09:43.624Z,40288.00
2018-05-15T05:10:43.637Z,43584.00
2018-05-15T05:11:43.686Z,45248.00
2018-05-15T05:12:43.687Z,45376.00
2018-05-15T05:13:43.726Z,45440.00
2018-05-15T05:14:43.740Z,45152.00
2018-05-15T05:15:43.764Z,45344.00
2018-05-15T05:16:43.785Z,45696.00
2018-05-15T05:17:43.810Z,46944.00
2018-05-15T05:18:43.841Z,47968.00
2018-05-15T05:19:43.880Z,48608.00
2018-05-15T05:20:43.913Z,49280.00
2018-05-15T05:21:43.926Z,48480.00
2018-05-15T05:22:43.944Z,48992.00
2018-05-15T05:23:43.993Z,48416.00
2018-05-15T05:24:43.994Z,48064.00
2018-05-15T05:25:44.047Z,47488.00
2018-05-15T05:26:44.050Z,47968.00
2018-05-15T05:27:44.085Z,47936.00
2018-05-15T05:28:44.115Z,47136.00
2018-05-15T05:29:44.156Z,45472.00
2018-05-15T05:30:44.161Z,42720.00
2018-05-15T05:31:44.207Z,40384.00
2018-05-15T05:32:44.259Z,39872.00
2018-05-15T05:33:44.283Z,41568.00
2018-05-15T05:34:44.267Z,44832.00
2018-05-15T05:35:44.305Z,45888.00
2018-05-15T05:36:44.351Z,44672.00
2018-05-15T05:37:44.352Z,43360.00
2018-05-15T05:38:44.378Z,41856.00
2018-05-15T05:39:44.412Z,40672.00
2018-05-15T05:40:44.444Z,40672.00
2018-05-15T05:41:44.465Z,40832.00
2018-05-15T05:42:44.493Z,40512.00
2018-05-15T05:43:44.517Z,39520.00
2018-05-15T05:44:44.548Z,38496.00
2018-05-15T05:45:44.591Z,37472.00
2018-05-15T05:46:44.602Z,36800.00
2018-05-15T05:47:44.622Z,36736.00
2018-05-15T05:48:44.654Z,36128.00
2018-05-15T05:49:44.688Z,34752.00
2018-05-15T05:50:44.708Z,29632.00
2018-05-15T05:51:44.735Z,32576.00
2018-05-15T05:52:44.764Z,31616.00
2018-05-15T05:53:44.806Z,31264.00
2018-05-15T05:54:44.819Z,31232.00
2018-05-15T05:55:44.837Z,31424.00
2018-05-15T05:56:44.907Z,30976.00
2018-05-15T05:57:44.911Z,29696.00
2018-05-15T05:58:44.940Z,28704.00
2018-05-15T05:59:44.949Z,28608.00
2018-05-15T06:00:44.990Z,29248.00
2018-05-15T06:01:45.054Z,29984.00
2018-05-15T06:02:45.050Z,30336.00
2018-05-15T06:03:45.058Z,30720.00
2018-05-15T06:04:45.150Z,37792.00
2018-05-15T06:05:45.126Z,60064.00
2018-05-15T06:06:45.141Z,83072.00
2018-05-15T06:07:45.181Z,104224.00
2018-05-15T06:08:45.217Z,110560.00
2018-05-15T06:09:45.236Z,103840.00
2018-05-15T06:10:45.260Z,96992.00
2018-05-15T06:11:45.294Z,87712.00
2018-05-15T06:12:45.318Z,88512.00
2018-05-15T06:13:45.344Z,90880.00
2018-05-15T06:14:45.386Z,94752.00
2018-05-15T06:15:45.403Z,92192.00
2018-05-15T06:16:45.427Z,84608.00
2018-05-15T06:17:45.462Z,76832.00
2018-05-15T06:18:45.495Z,74624.00
2018-05-15T06:19:45.514Z,72160.00
2018-05-15T06:20:45.593Z,70464.00
2018-05-15T06:21:45.571Z,66912.00
2018-05-15T06:22:45.616Z,67872.00
2018-05-15T06:23:45.664Z,69920.00
2018-05-15T06:24:45.661Z,73824.00
2018-05-15T06:25:45.692Z,78272.00
2018-05-15T06:26:45.722Z,81760.00
2018-05-15T06:27:45.747Z,80544.00
2018-05-15T06:28:45.780Z,75648.00
2018-05-15T06:29:45.815Z,73056.00
2018-05-15T06:30:45.831Z,73632.00
2018-05-15T06:31:45.882Z,75136.00
2018-05-15T06:32:45.897Z,76416.00
2018-05-15T06:33:45.918Z,78880.00
2018-05-15T06:34:45.946Z,78976.00
2018-05-15T06:35:45.978Z,81184.00
2018-05-15T06:36:46.003Z,83008.00
2018-05-15T06:37:46.029Z,84480.00
2018-05-15T06:38:46.054Z,86336.00
2018-05-15T06:39:46.106Z,84576.00
2018-05-15T06:40:46.130Z,83616.00
2018-05-15T06:41:46.149Z,86368.00
2018-05-15T06:42:46.178Z,86880.00
2018-05-15T06:43:46.202Z,85312.00
2018-05-15T06:44:46.277Z,80992.00
2018-05-15T06:45:46.273Z,78464.00
2018-05-15T06:46:46.300Z,78848.00
2018-05-15T06:47:46.326Z,78176.00
2018-05-15T06:48:46.347Z,78336.00
2018-05-15T06:49:46.368Z,80224.00
2018-05-15T06:50:46.412Z,78144.00
2018-05-15T06:51:46.432Z,79040.00
2018-05-15T06:52:46.457Z,75232.00
2018-05-15T06:53:46.493Z,76416.00
2018-05-15T06:54:46.520Z,78240.00
2018-05-15T06:55:46.551Z,78688.00
2018-05-15T06:56:46.577Z,81600.00
2018-05-15T06:57:46.606Z,82304.00
2018-05-15T06:58:46.640Z,83616.00
2018-05-15T06:59:46.665Z,84832.00
2018-05-15T07:00:46.730Z,86208.00
2018-05-15T07:01:46.741Z,88480.00
2018-05-15T07:02:46.758Z,88896.00
2018-05-15T07:03:46.790Z,89088.00
2018-05-15T07:04:46.801Z,84960.00
2018-05-15T07:05:46.840Z,81568.00
2018-05-15T07:06:46.866Z,79744.00
2018-05-15T07:07:46.936Z,78912.00
2018-05-15T07:08:46.922Z,81728.00
2018-05-15T07:09:46.957Z,84608.00
2018-05-15T07:10:46.986Z,84768.00
2018-05-15T07:11:47.007Z,82880.00
2018-05-15T07:12:47.058Z,78880.00
2018-05-15T07:13:47.069Z,73536.00
2018-05-15T07:14:47.084Z,71040.00
2018-05-15T07:15:47.120Z,71264.00
2018-05-15T07:16:47.148Z,57056.00
2018-05-15T07:17:47.173Z,58912.00
2018-05-15T07:18:47.196Z,58176.00
2018-05-15T07:19:47.239Z,61728.00
2018-05-15T07:20:47.259Z,64320.00
2018-05-15T07:21:47.293Z,65728.00
2018-05-15T07:22:47.318Z,73824.00
2018-05-15T07:23:47.363Z,73184.00
2018-05-15T07:24:47.380Z,72160.00
2018-05-15T07:25:47.394Z,69312.00
2018-05-15T07:26:47.421Z,68256.00
2018-05-15T07:27:47.449Z,68992.00
2018-05-15T07:28:47.512Z,71936.00
2018-05-15T07:29:47.534Z,72672.00
2018-05-15T07:30:47.541Z,71264.00
2018-05-15T07:31:47.563Z,72096.00
2018-05-15T07:32:47.627Z,70240.00
2018-05-15T07:33:47.634Z,68512.00
2018-05-15T07:34:47.654Z,65792.00
2018-05-15T07:35:47.675Z,62592.00
2018-05-15T07:36:47.714Z,61664.00
2018-05-15T07:37:47.745Z,62080.00
2018-05-15T07:38:47.772Z,64256.00
2018-05-15T07:39:47.790Z,68672.00
2018-05-15T07:40:47.837Z,71328.00
2018-05-15T07:41:47.929Z,70976.00
2018-05-15T07:42:47.879Z,67232.00
2018-05-15T07:43:47.905Z,63200.00
2018-05-15T07:44:47.936Z,50912.00
2018-05-15T07:45:47.962Z,51040.00
2018-05-15T07:46:47.995Z,52576.00
2018-05-15T07:47:48.015Z,65312.00
2018-05-15T07:48:48.053Z,67296.00
2018-05-15T07:49:48.079Z,64576.00
2018-05-15T07:50:48.111Z,61984.00
2018-05-15T07:51:48.143Z,60512.00
2018-05-15T07:52:48.164Z,58240.00
2018-05-15T07:53:48.197Z,58240.00
2018-05-15T07:54:48.220Z,57920.00
2018-05-15T07:55:48.254Z,58080.00
2018-05-15T07:56:48.270Z,60480.00
2018-05-15T07:57:48.312Z,62912.00
2018-05-15T07:58:48.337Z,63840.00
2018-05-15T07:59:48.351Z,70624.00
2018-05-15T08:00:48.387Z,73312.00
2018-05-15T08:01:48.418Z,70912.00
2018-05-15T08:02:48.471Z,65056.00
2018-05-15T08:03:48.469Z,74080.00
2018-05-15T08:04:48.498Z,70752.00
2018-05-15T08:05:48.538Z,67008.00
2018-05-15T08:06:48.559Z,67104.00
2018-05-15T08:07:48.625Z,65376.00
2018-05-15T08:08:48.609Z,66112.00
2018-05-15T08:09:48.637Z,66240.00
2018-05-15T08:10:48.657Z,65024.00
2018-05-15T08:11:48.692Z,66240.00
2018-05-15T08:12:48.715Z,68768.00
2018-05-15T08:13:48.795Z,68096.00
2018-05-15T08:14:48.776Z,67616.00
2018-05-15T08:15:48.801Z,68864.00
2018-05-15T08:16:48.825Z,70560.00
2018-05-15T08:17:48.855Z,71104.00
2018-05-15T08:18:48.879Z,69344.00
2018-05-15T08:19:48.911Z,66848.00
2018-05-15T08:20:48.951Z,69440.00
2018-05-15T08:21:48.968Z,66816.00
2018-05-15T08:22:48.993Z,59072.00
2018-05-15T08:23:49.022Z,60384.00
2018-05-15T08:24:49.056Z,65184.00
2018-05-15T08:25:49.071Z,68384.00
2018-05-15T08:26:49.101Z,64192.00
2018-05-15T08:27:49.131Z,37440.00
2018-05-15T08:28:49.150Z,16052.00
2018-05-15T08:29:49.179Z,14896.00
2018-05-15T08:30:49.259Z,14816.00
2018-05-15T08:31:49.242Z,14208.00
2018-05-15T08:32:49.261Z,13936.00
2018-05-15T08:33:49.279Z,13884.00
2018-05-15T08:34:49.316Z,13752.00
2018-05-15T08:35:49.327Z,13632.00
2018-05-15T08:36:49.353Z,13548.00
2018-05-15T08:37:49.404Z,13508.00
2018-05-15T08:38:49.404Z,13476.00
2018-05-15T08:39:49.432Z,13424.00
2018-05-15T08:40:49.456Z,13428.00
2018-05-15T08:41:49.477Z,13392.00
2018-05-15T08:42:49.510Z,13384.00
2018-05-15T08:43:49.531Z,13292.00
2018-05-15T08:44:49.561Z,13240.00
2018-05-15T08:45:49.576Z,13324.00
2018-05-15T08:46:49.597Z,13340.00
2018-05-15T08:47:49.636Z,13360.00
2018-05-15T08:48:49.661Z,13348.00
2018-05-15T08:49:49.683Z,13236.00
2018-05-15T08:50:49.699Z,13164.00
2018-05-15T08:51:49.724Z,13184.00
2018-05-15T08:52:49.754Z,13128.00
2018-05-15T08:53:49.773Z,13176.00
2018-05-15T08:54:49.823Z,13092.00
2018-05-15T08:55:49.816Z,12988.00
2018-05-15T08:56:49.842Z,12900.00
2018-05-15T08:57:49.870Z,12824.00
2018-05-15T08:58:49.920Z,12780.00
2018-05-15T08:59:49.914Z,12732.00
2018-05-15T09:00:49.944Z,12636.00
2018-05-15T09:01:49.970Z,12472.00
2018-05-15T09:02:49.998Z,12444.00
2018-05-15T09:03:50.012Z,12384.00
2018-05-15T09:04:50.031Z,12268.00
2018-05-15T09:05:50.064Z,12264.00
2018-05-15T09:06:50.097Z,12212.00
2018-05-15T09:07:50.109Z,12220.00
2018-05-15T09:08:50.131Z,12220.00
2018-05-15T09:09:50.159Z,12264.00
2018-05-15T09:10:50.176Z,12288.00
2018-05-15T09:11:50.206Z,12352.00
2018-05-15T09:12:50.226Z,12416.00
2018-05-15T09:13:50.253Z,12484.00
2018-05-15T09:14:50.281Z,12532.00
2018-05-15T09:15:50.294Z,12548.00
2018-05-15T09:16:50.353Z,12588.00
2018-05-15T09:17:50.341Z,12584.00
2018-05-15T09:18:50.448Z,12588.00
2018-05-15T09:19:50.398Z,12568.00
2018-05-15T09:20:50.421Z,12524.00
2018-05-15T09:21:50.457Z,12540.00
2018-05-15T09:22:50.465Z,12640.00
2018-05-15T09:23:50.489Z,12736.00
2018-05-15T09:24:50.531Z,12772.00
2018-05-15T09:25:50.548Z,12836.00
2018-05-15T09:26:50.564Z,12884.00
2018-05-15T09:27:50.610Z,12944.00
2018-05-15T09:28:50.617Z,12952.00
2018-05-15T09:29:50.656Z,12884.00
2018-05-15T09:30:50.703Z,12872.00
2018-05-15T09:31:50.685Z,13048.00
2018-05-15T09:32:50.705Z,13288.00
2018-05-15T09:33:50.732Z,13336.00
2018-05-15T09:34:50.759Z,13484.00
2018-05-15T09:35:50.773Z,13828.00
2018-05-15T09:36:50.803Z,13424.00
2018-05-15T09:37:50.830Z,13404.00
2018-05-15T09:38:50.852Z,13468.00
2018-05-15T09:39:50.879Z,13128.00
2018-05-15T09:40:50.926Z,12400.00
2018-05-15T09:41:50.945Z,12252.00
2018-05-15T09:42:50.959Z,12192.00
2018-05-15T09:43:50.972Z,12196.00
2018-05-15T09:44:50.993Z,12100.00
2018-05-15T09:45:51.021Z,12132.00
2018-05-15T09:46:51.052Z,12336.00
2018-05-15T09:47:51.064Z,12336.00
2018-05-15T09:48:51.090Z,12376.00
2018-05-15T09:49:51.108Z,12384.00
2018-05-15T09:50:51.141Z,12352.00
2018-05-15T09:51:51.168Z,12352.00
2018-05-15T09:52:51.208Z,12396.00
2018-05-15T09:53:51.211Z,12464.00
2018-05-15T09:54:51.239Z,12496.00
2018-05-15T09:55:51.254Z,12412.00
2018-05-15T09:56:51.281Z,12244.00
2018-05-15T09:57:51.303Z,12220.00
2018-05-15T09:58:51.332Z,12120.00
2018-05-15T09:59:51.349Z,11976.00
2018-05-15T10:00:51.388Z,11988.00
2018-05-15T10:01:51.423Z,12004.00
2018-05-15T10:02:51.434Z,12172.00
2018-05-15T10:03:51.447Z,11928.00
2018-05-15T10:04:51.481Z,11420.00
2018-05-15T10:05:51.500Z,12524.00
2018-05-15T10:06:51.525Z,12540.00
2018-05-15T10:07:51.605Z,12564.00
2018-05-15T10:08:51.574Z,12452.00
2018-05-15T10:09:51.599Z,12404.00
2018-05-15T10:10:51.634Z,12432.00
2018-05-15T10:11:51.641Z,12428.00
2018-05-15T10:12:51.675Z,12416.00
2018-05-15T10:13:51.682Z,12352.00
2018-05-15T10:14:51.706Z,12000.00
2018-05-15T10:15:51.740Z,12184.00
2018-05-15T10:16:51.762Z,12160.00
2018-05-15T10:17:51.782Z,11872.00
2018-05-15T10:18:51.808Z,10532.00
2018-05-15T10:19:51.834Z,10364.00
2018-05-15T10:20:51.857Z,11344.00
2018-05-15T10:21:51.877Z,11168.00
2018-05-15T10:22:51.914Z,11168.00
2018-05-15T10:23:51.927Z,11096.00
2018-05-15T10:24:51.950Z,11256.00
2018-05-15T10:25:51.978Z,11188.00
2018-05-15T10:26:51.995Z,11184.00
2018-05-15T10:27:52.035Z,11284.00
2018-05-15T10:28:52.072Z,11248.00
2018-05-15T10:29:52.136Z,11408.00
2018-05-15T10:30:52.119Z,11444.00
2018-05-15T10:31:52.121Z,11412.00
2018-05-15T10:32:52.141Z,11380.00
2018-05-15T10:33:52.164Z,11480.00
2018-05-15T10:34:52.196Z,11316.00
2018-05-15T10:35:52.209Z,11472.00
2018-05-15T10:36:52.237Z,11440.00
2018-05-15T10:37:52.263Z,11388.00
2018-05-15T10:38:52.281Z,10776.00
2018-05-15T10:39:52.317Z,11008.00
2018-05-15T10:40:52.359Z,11104.00
2018-05-15T10:41:52.358Z,11188.00
2018-05-15T10:42:52.372Z,11372.00
2018-05-15T10:43:52.437Z,11004.00
2018-05-15T10:44:52.423Z,11584.00
2018-05-15T10:45:52.476Z,12912.00
2018-05-15T10:46:52.485Z,13020.00
2018-05-15T10:47:52.499Z,12408.00
2018-05-15T10:48:52.537Z,12096.00
2018-05-15T10:49:52.543Z,11396.00
2018-05-15T10:50:52.672Z,10920.00
2018-05-15T10:51:52.613Z,11348.00
2018-05-15T10:52:52.612Z,11184.00
2018-05-15T10:53:52.646Z,11524.00
2018-05-15T10:54:52.669Z,11868.00
2018-05-15T10:55:52.701Z,12548.00
2018-05-15T10:56:52.711Z,12952.00
2018-05-15T10:57:52.736Z,12964.00
2018-05-15T10:58:52.757Z,12724.00
2018-05-15T10:59:52.781Z,11960.00
2018-05-15T11:00:52.819Z,11636.00
2018-05-15T11:01:52.836Z,11536.00
2018-05-15T11:02:52.859Z,11164.00
2018-05-15T11:03:52.881Z,11000.00
2018-05-15T11:04:52.907Z,11052.00
2018-05-15T11:05:52.923Z,10912.00
2018-05-15T11:06:52.954Z,10808.00
2018-05-15T11:07:52.976Z,10604.00
2018-05-15T11:08:52.994Z,10488.00
2018-05-15T11:09:53.019Z,10892.00
2018-05-15T11:10:53.044Z,11476.00
2018-05-15T11:11:53.077Z,11692.00
2018-05-15T11:12:53.175Z,11300.00
2018-05-15T11:13:53.116Z,10884.00
2018-05-15T11:14:53.149Z,10716.00
2018-05-15T11:15:53.173Z,10596.00
2018-05-15T11:16:53.190Z,10532.00
2018-05-15T11:17:53.215Z,10484.00
2018-05-15T11:18:53.242Z,10556.00
2018-05-15T11:19:53.268Z,10612.00
2018-05-15T11:20:53.295Z,10616.00
2018-05-15T11:21:53.306Z,10692.00
2018-05-15T11:22:53.369Z,10828.00
2018-05-15T11:23:53.372Z,10972.00
2018-05-15T11:24:53.389Z,11240.00
2018-05-15T11:25:53.440Z,11668.00
2018-05-15T11:26:53.439Z,12108.00
2018-05-15T11:27:53.453Z,12444.00
2018-05-15T11:28:53.494Z,12688.00
2018-05-15T11:29:53.504Z,12788.00
2018-05-15T11:30:53.526Z,12700.00
2018-05-15T11:31:53.580Z,12580.00
2018-05-15T11:32:53.581Z,12472.00
2018-05-15T11:33:53.640Z,12196.00
2018-05-15T11:34:53.634Z,11656.00
2018-05-15T11:35:53.747Z,11580.00
2018-05-15T11:36:53.685Z,11800.00
2018-05-15T11:37:53.704Z,11968.00
2018-05-15T11:38:53.714Z,11772.00
2018-05-15T11:39:53.737Z,11864.00
2018-05-15T11:40:53.775Z,11912.00
2018-05-15T11:41:53.860Z,12184.00
2018-05-15T11:42:53.814Z,12488.00
2018-05-15T11:43:53.840Z,12792.00
2018-05-15T11:44:53.865Z,12824.00
2018-05-15T11:45:53.912Z,13260.00
2018-05-15T11:46:53.902Z,13736.00
2018-05-15T11:47:54.455Z,14336.00
2018-05-15T11:48:54.489Z,15184.00
2018-05-15T11:49:54.980Z,15112.00
2018-05-15T11:50:54.223Z,15228.00
2018-05-15T11:51:54.823Z,16000.00
2018-05-15T11:52:54.667Z,16640.00
2018-05-15T11:53:54.088Z,16640.00
2018-05-15T11:54:54.107Z,16768.00
2018-05-15T11:55:54.212Z,15132.00
2018-05-15T11:56:54.156Z,16012.00
2018-05-15T11:57:54.240Z,14836.00
2018-05-15T11:58:54.211Z,14840.00
2018-05-15T11:59:54.322Z,15088.00
2018-05-15T12:00:54.253Z,15152.00
2018-05-15T12:01:54.270Z,16384.00
2018-05-15T12:02:54.305Z,16352.00
2018-05-15T12:03:54.322Z,15060.00
2018-05-15T12:04:54.345Z,13768.00
2018-05-15T12:05:54.382Z,14048.00
2018-05-15T12:06:54.392Z,14132.00
2018-05-15T12:07:54.421Z,12164.00
2018-05-15T12:08:54.469Z,11504.00
2018-05-15T12:09:54.483Z,10412.00
2018-05-15T12:10:54.488Z,10292.00
2018-05-15T12:11:54.525Z,10408.00
2018-05-15T12:12:54.583Z,10764.00
2018-05-15T12:13:54.569Z,10980.00
2018-05-15T12:14:54.590Z,11176.00
2018-05-15T12:15:54.619Z,11040.00
2018-05-15T12:16:54.668Z,10784.00
2018-05-15T12:17:54.663Z,10840.00
2018-05-15T12:18:54.688Z,11864.00
2018-05-15T12:19:54.711Z,12728.00
2018-05-15T12:20:54.766Z,12404.00
2018-05-15T12:21:54.782Z,12080.00
2018-05-15T12:22:54.797Z,11888.00
2018-05-15T12:23:54.833Z,11732.00
2018-05-15T12:24:54.840Z,11640.00
2018-05-15T12:25:54.855Z,11708.00
2018-05-15T12:26:54.918Z,11788.00
2018-05-15T12:27:54.945Z,11904.00
2018-05-15T12:28:54.976Z,12248.00
2018-05-15T12:29:55.003Z,12708.00
2018-05-15T12:30:55.004Z,13184.00
2018-05-15T12:31:55.011Z,13776.00
2018-05-15T12:32:55.031Z,14560.00
2018-05-15T12:33:55.333Z,14928.00
2018-05-15T12:34:55.092Z,14380.00
2018-05-15T12:35:55.185Z,14568.00
2018-05-15T12:36:55.135Z,14540.00
2018-05-15T12:37:55.154Z,14368.00
2018-05-15T12:38:55.193Z,13932.00
2018-05-15T12:39:55.260Z,13740.00
2018-05-15T12:40:55.217Z,13744.00
2018-05-15T12:41:55.497Z,13928.00
2018-05-15T12:42:55.287Z,14248.00
2018-05-15T12:43:55.292Z,14456.00
2018-05-15T12:44:55.308Z,14376.00
2018-05-15T12:45:55.347Z,14108.00
2018-05-15T12:46:55.366Z,13812.00
2018-05-15T12:47:55.475Z,13432.00
2018-05-15T12:48:55.425Z,13076.00
2018-05-15T12:49:55.431Z,12732.00
2018-05-15T12:50:55.459Z,12700.00
2018-05-15T12:51:55.495Z,12968.00
2018-05-15T12:52:55.507Z,13896.00
2018-05-15T12:53:55.561Z,14036.00
2018-05-15T12:54:55.563Z,14584.00
2018-05-15T12:55:55.577Z,15180.00
2018-05-15T12:56:55.605Z,15744.00
2018-05-15T12:57:55.634Z,15732.00
2018-05-15T12:58:55.655Z,16140.00
2018-05-15T12:59:55.677Z,17024.00
2018-05-15T13:00:55.702Z,17440.00
2018-05-15T13:01:55.721Z,17312.00
2018-05-15T13:02:55.748Z,17152.00
2018-05-15T13:03:55.809Z,16960.00
2018-05-15T13:04:55.788Z,16608.00
2018-05-15T13:05:55.813Z,16544.00
2018-05-15T13:06:55.857Z,16576.00
2018-05-15T13:07:55.874Z,16736.00
2018-05-15T13:08:55.894Z,16160.00
2018-05-15T13:09:55.913Z,16352.00
2018-05-15T13:10:55.953Z,16140.00
2018-05-15T13:11:55.972Z,15800.00
2018-05-15T13:12:55.998Z,15728.00
2018-05-15T13:13:56.024Z,15352.00
2018-05-15T13:14:56.042Z,15096.00
2018-05-15T13:15:56.083Z,14556.00
2018-05-15T13:16:56.098Z,13904.00
2018-05-15T13:17:56.107Z,13292.00
2018-05-15T13:18:56.148Z,12796.00
2018-05-15T13:19:56.160Z,12440.00
2018-05-15T13:20:56.188Z,12384.00
2018-05-15T13:21:56.204Z,12476.00
2018-05-15T13:22:56.230Z,12724.00
2018-05-15T13:23:56.284Z,12876.00
2018-05-15T13:24:56.306Z,13100.00
2018-05-15T13:25:56.309Z,13428.00
2018-05-15T13:26:56.323Z,14416.00
2018-05-15T13:27:56.378Z,14864.00
2018-05-15T13:28:56.393Z,15148.00
2018-05-15T13:29:56.510Z,15284.00
2018-05-15T13:30:56.437Z,15300.00
2018-05-15T13:31:56.461Z,15184.00
2018-05-15T13:32:56.480Z,14888.00
2018-05-15T13:33:56.496Z,15184.00
2018-05-15T13:34:56.535Z,15028.00
2018-05-15T13:35:56.543Z,13904.00
2018-05-15T13:36:56.583Z,13260.00
2018-05-15T13:37:56.591Z,12792.00